createdAt,value
2023-02-08T00:00:12.037Z,98577.28
2023-02-08T00:02:39.034Z,98576.38
2023-02-08T00:05:06.340Z,98585.44
2023-02-08T00:07:33.170Z,98590.50
2023-02-08T00:10:00.199Z,98590.50
2023-02-08T00:12:28.284Z,98580.53
2023-02-08T00:14:55.202Z,98593.50
2023-02-08T00:17:22.064Z,98596.31
2023-02-08T00:19:48.947Z,98594.56
2023-02-08T00:22:15.891Z,98591.06
2023-02-08T00:24:42.765Z,98598.78
2023-02-08T00:27:09.666Z,98597.09
2023-02-08T00:29:37.254Z,98601.00
2023-02-08T00:32:05.291Z,98604.31
2023-02-08T00:34:32.385Z,98604.53
2023-02-08T00:36:59.224Z,98602.75
2023-02-08T00:39:26.124Z,98604.22
2023-02-08T00:41:52.980Z,98604.28
2023-02-08T00:44:19.921Z,98607.00
2023-02-08T00:46:46.841Z,98595.81
2023-02-08T00:49:13.932Z,98605.03
2023-02-08T00:51:40.785Z,98610.88
2023-02-08T00:54:12.595Z,98599.88
2023-02-08T00:56:39.398Z,98597.50
2023-02-08T00:59:06.308Z,98602.66
2023-02-08T01:01:33.566Z,98596.50
2023-02-08T01:04:01.010Z,98603.00
2023-02-08T01:06:28.250Z,98606.19
2023-02-08T01:08:55.168Z,98604.66
2023-02-08T01:11:25.446Z,98613.91
2023-02-08T01:14:00.200Z,98622.44
2023-02-08T01:16:29.976Z,98618.97
2023-02-08T01:18:59.045Z,98618.63
2023-02-08T01:21:28.467Z,98631.69
2023-02-08T01:23:55.687Z,98620.16
2023-02-08T01:26:23.937Z,98637.06
2023-02-08T01:28:52.361Z,98632.97
2023-02-08T01:31:29.259Z,98616.88
2023-02-08T01:33:57.819Z,98625.25
2023-02-08T01:36:26.156Z,98629.53
2023-02-08T01:38:53.324Z,98641.38
2023-02-08T01:41:26.511Z,98637.25
2023-02-08T01:44:11.482Z,98640.19
2023-02-08T01:46:40.673Z,98625.63
2023-02-08T01:49:15.564Z,98636.59
2023-02-08T01:52:05.228Z,98645.13
2023-02-08T01:54:48.886Z,98652.59
2023-02-08T01:57:17.187Z,98630.25
2023-02-08T01:59:54.941Z,98660.16
2023-02-08T02:02:26.063Z,98659.56
2023-02-08T02:04:54.312Z,98659.63
2023-02-08T02:07:26.144Z,98654.16
2023-02-08T02:10:02.186Z,98654.06
2023-02-08T02:12:33.243Z,98662.09
2023-02-08T02:15:02.036Z,98657.91
2023-02-08T02:17:31.273Z,98653.84
2023-02-08T02:20:01.096Z,98653.59
2023-02-08T02:22:55.121Z,98656.09
2023-02-08T02:25:43.678Z,98660.06
2023-02-08T02:28:54.744Z,98665.13
2023-02-08T02:31:40.972Z,98674.94
2023-02-08T02:34:21.594Z,98663.06
2023-02-08T02:36:48.377Z,98673.63
2023-02-08T02:39:35.951Z,98676.81
2023-02-08T02:42:36.611Z,98669.34
2023-02-08T02:45:22.235Z,98671.78
2023-02-08T02:48:15.001Z,98667.94
2023-02-08T02:50:56.757Z,98679.81
2023-02-08T02:53:36.130Z,98678.31
2023-02-08T02:56:09.853Z,98678.59
2023-02-08T02:58:39.583Z,98682.88
2023-02-08T03:01:06.540Z,98683.06
2023-02-08T03:03:34.791Z,98685.69
2023-02-08T03:06:11.348Z,98689.09
2023-02-08T03:08:40.897Z,98685.81
2023-02-08T03:11:25.837Z,98685.03
2023-02-08T03:14:15.248Z,98683.69
2023-02-08T03:17:11.359Z,98686.19
2023-02-08T03:19:48.186Z,98678.53
2023-02-08T03:22:21.389Z,98686.00
2023-02-08T03:25:32.157Z,98694.19
2023-02-08T03:28:07.647Z,98690.78
2023-02-08T03:30:50.046Z,98682.34
2023-02-08T03:33:20.994Z,98691.94
2023-02-08T03:35:53.687Z,98691.25
2023-02-08T03:38:36.012Z,98682.81
2023-02-08T03:41:06.312Z,98684.47
2023-02-08T03:43:38.932Z,98684.03
2023-02-08T03:46:12.388Z,98690.16
2023-02-08T03:48:42.591Z,98694.44
2023-02-08T03:51:09.974Z,98695.25
2023-02-08T03:53:40.607Z,98704.81
2023-02-08T03:56:23.018Z,98705.69
2023-02-08T03:59:01.129Z,98705.72
2023-02-08T04:01:37.866Z,98710.28
2023-02-08T04:04:05.278Z,98720.56
2023-02-08T04:06:32.404Z,98722.84
2023-02-08T04:08:59.262Z,98721.50
2023-02-08T04:11:26.137Z,98727.88
2023-02-08T04:13:52.995Z,98719.38
2023-02-08T04:16:20.033Z,98735.84
2023-02-08T04:18:47.039Z,98729.00
2023-02-08T04:21:14.107Z,98739.34
2023-02-08T04:23:41.258Z,98733.75
2023-02-08T04:26:08.957Z,98735.50
2023-02-08T04:28:35.828Z,98744.69
2023-02-08T04:31:02.914Z,98744.38
2023-02-08T04:33:29.991Z,98746.22
2023-02-08T04:35:56.863Z,98745.78
2023-02-08T04:38:23.822Z,98750.00
2023-02-08T04:40:50.853Z,98758.63
2023-02-08T04:43:17.880Z,98765.94
2023-02-08T04:45:44.715Z,98748.44
2023-02-08T04:48:12.068Z,98764.09
2023-02-08T04:50:39.624Z,98748.03
2023-02-08T04:53:06.918Z,98771.91
2023-02-08T04:55:34.414Z,98772.00
2023-02-08T04:58:01.620Z,98777.91
2023-02-08T05:00:28.978Z,98779.72
2023-02-08T05:02:57.588Z,98768.56
2023-02-08T05:05:26.165Z,98792.84
2023-02-08T05:07:53.225Z,98800.34
2023-02-08T05:10:20.229Z,98802.56
2023-02-08T05:12:47.206Z,98787.59
2023-02-08T05:15:14.353Z,98809.13
2023-02-08T05:17:41.558Z,98812.53
2023-02-08T05:20:09.895Z,98810.81
2023-02-08T05:22:36.887Z,98808.72
2023-02-08T05:25:04.502Z,98823.63
2023-02-08T05:27:31.638Z,98829.00
2023-02-08T05:29:59.202Z,98825.84
2023-02-08T05:32:26.332Z,98832.34
2023-02-08T05:34:53.252Z,98829.22
2023-02-08T05:37:20.240Z,98835.88
2023-02-08T05:39:47.112Z,98805.28
2023-02-08T05:42:13.972Z,98834.84
2023-02-08T05:44:40.918Z,98837.94
2023-02-08T05:47:07.781Z,98843.41
2023-02-08T05:49:34.648Z,98851.72
2023-02-08T05:52:01.595Z,98850.63
2023-02-08T05:54:28.645Z,98848.03
2023-02-08T05:56:55.543Z,98834.50
2023-02-08T05:59:22.468Z,98841.19
2023-02-08T06:01:49.558Z,98847.03
2023-02-08T06:04:16.546Z,98836.03
2023-02-08T06:06:43.746Z,98823.94
2023-02-08T06:09:10.614Z,98817.25
2023-02-08T06:11:37.762Z,98825.72
2023-02-08T06:14:04.730Z,98831.97
2023-02-08T06:16:31.647Z,98836.59
2023-02-08T06:18:58.542Z,98828.81
2023-02-08T06:21:25.523Z,98842.94
2023-02-08T06:23:52.399Z,98833.78
2023-02-08T06:26:19.411Z,98834.44
2023-02-08T06:28:46.380Z,98819.41
2023-02-08T06:31:13.310Z,98818.38
2023-02-08T06:33:40.278Z,98813.63
2023-02-08T06:36:07.626Z,98821.78
2023-02-08T06:38:34.537Z,98823.81
2023-02-08T06:41:01.415Z,98834.63
2023-02-08T06:43:28.386Z,98814.88
2023-02-08T06:45:55.481Z,98826.53
2023-02-08T06:48:22.335Z,98833.41
2023-02-08T06:50:52.595Z,98826.72
2023-02-08T06:53:19.648Z,98834.16
2023-02-08T06:55:50.200Z,98826.09
2023-02-08T06:58:17.562Z,98812.75
2023-02-08T07:00:47.849Z,98827.69
2023-02-08T07:03:17.534Z,98829.63
2023-02-08T07:05:58.792Z,98830.44
2023-02-08T07:08:32.189Z,98842.09
2023-02-08T07:10:59.260Z,98840.78
2023-02-08T07:13:26.278Z,98831.03
2023-02-08T07:15:53.256Z,98832.78
2023-02-08T07:18:23.451Z,98809.94
2023-02-08T07:20:51.557Z,98853.22
2023-02-08T07:23:19.324Z,98830.97
2023-02-08T07:25:55.910Z,98829.22
2023-02-08T07:28:37.180Z,98837.03
2023-02-08T07:31:12.050Z,98809.34
2023-02-08T07:33:39.999Z,98834.88
2023-02-08T07:36:09.044Z,98846.72
2023-02-08T07:38:36.960Z,98827.84
2023-02-08T07:41:14.164Z,98845.50
2023-02-08T07:43:43.243Z,98858.75
2023-02-08T07:46:16.744Z,98853.13
2023-02-08T07:48:43.918Z,98856.19
2023-02-08T07:51:11.953Z,98861.53
2023-02-08T07:53:39.498Z,98869.88
2023-02-08T07:56:06.913Z,98876.59
2023-02-08T07:58:33.811Z,98879.16
2023-02-08T08:01:09.497Z,98872.19
2023-02-08T08:03:39.362Z,98883.38
2023-02-08T08:06:06.745Z,98888.66
2023-02-08T08:08:33.816Z,98876.63
2023-02-08T08:11:03.671Z,98886.94
2023-02-08T08:13:30.925Z,98887.41
2023-02-08T08:16:02.652Z,98879.75
2023-02-08T08:18:55.018Z,98881.91
2023-02-08T08:21:21.877Z,98918.03
2023-02-08T08:23:48.925Z,98929.00
2023-02-08T08:26:18.637Z,98920.03
2023-02-08T08:28:47.925Z,98928.31
2023-02-08T08:31:17.706Z,98925.38
2023-02-08T08:33:44.835Z,98910.88
2023-02-08T08:36:12.103Z,98932.19
2023-02-08T08:38:39.459Z,98930.81
2023-02-08T08:41:17.124Z,98937.81
2023-02-08T08:43:44.865Z,98910.78
2023-02-08T08:46:12.029Z,98930.13
2023-02-08T08:48:39.076Z,98931.59
2023-02-08T08:51:07.173Z,98924.03
2023-02-08T08:53:35.161Z,98929.09
2023-02-08T08:56:02.270Z,98923.16
2023-02-08T08:58:29.557Z,98932.41
2023-02-08T09:00:58.921Z,98938.06
2023-02-08T09:03:26.935Z,98928.69
2023-02-08T09:05:54.120Z,98929.66
2023-02-08T09:08:21.632Z,98929.66
2023-02-08T09:10:52.530Z,98931.84
2023-02-08T09:13:21.328Z,98940.88
2023-02-08T09:15:48.966Z,98931.94
2023-02-08T09:18:16.693Z,98954.88
2023-02-08T09:20:44.041Z,98956.09
2023-02-08T09:23:11.482Z,98947.81
2023-02-08T09:25:38.512Z,98959.72
2023-02-08T09:28:05.683Z,98963.50
2023-02-08T09:30:33.400Z,98878.69
2023-02-08T09:33:00.285Z,98955.72
2023-02-08T09:35:27.300Z,98958.06
2023-02-08T09:37:55.816Z,98959.25
2023-02-08T09:40:30.904Z,98952.66
2023-02-08T09:43:09.830Z,98963.41
2023-02-08T09:46:00.167Z,98980.81
2023-02-08T09:48:39.432Z,98967.75
2023-02-08T09:51:51.382Z,98969.81
2023-02-08T09:54:25.465Z,98953.53
2023-02-08T09:56:53.097Z,98953.41
2023-02-08T09:59:32.309Z,98943.16
2023-02-08T10:02:11.423Z,98951.94
2023-02-08T10:04:55.530Z,98954.25
2023-02-08T10:07:23.831Z,98954.56
2023-02-08T10:09:51.004Z,98948.22
2023-02-08T10:12:31.430Z,98933.38
2023-02-08T10:15:25.760Z,98956.31
2023-02-08T10:18:03.571Z,98951.72
2023-02-08T10:21:03.590Z,98944.09
2023-02-08T10:23:46.051Z,98944.66
2023-02-08T10:26:31.798Z,98944.13
2023-02-08T10:29:04.722Z,98951.91
2023-02-08T10:32:19.502Z,98952.81
2023-02-08T10:34:52.268Z,98950.38
2023-02-08T10:37:30.531Z,98935.91
2023-02-08T10:40:04.198Z,98928.97
2023-02-08T10:42:32.912Z,98941.72
2023-02-08T10:45:24.655Z,98947.97
2023-02-08T10:48:10.806Z,98956.16
2023-02-08T10:50:44.008Z,98942.50
2023-02-08T10:53:16.955Z,98956.94
2023-02-08T10:56:02.661Z,98963.47
2023-02-08T10:58:33.785Z,98952.81
2023-02-08T11:01:08.845Z,98959.00
2023-02-08T11:03:48.578Z,98963.16
2023-02-08T11:06:27.197Z,98865.81
2023-02-08T11:09:01.614Z,98951.22
2023-02-08T11:11:37.942Z,98946.59
2023-02-08T11:14:19.327Z,98952.59
2023-02-08T11:16:56.463Z,98955.78
2023-02-08T11:19:41.527Z,98958.56
2023-02-08T11:22:29.392Z,98969.31
2023-02-08T11:25:07.087Z,98940.41
2023-02-08T11:27:49.031Z,98945.47
2023-02-08T11:30:26.159Z,98956.28
2023-02-08T11:33:26.081Z,98957.88
2023-02-08T11:36:02.973Z,98953.22
2023-02-08T11:38:40.930Z,98955.22
2023-02-08T11:41:22.417Z,98941.00
2023-02-08T11:44:13.008Z,98936.28
2023-02-08T11:46:42.725Z,98929.25
2023-02-08T11:49:22.231Z,98946.81
2023-02-08T11:51:50.022Z,98942.84
2023-02-08T11:54:34.079Z,98945.75
2023-02-08T11:57:16.410Z,98945.38
2023-02-08T11:59:43.796Z,98945.41
2023-02-08T12:02:36.120Z,98941.31
2023-02-08T12:05:09.429Z,98950.03
2023-02-08T12:07:39.345Z,98945.09
2023-02-08T12:10:33.532Z,98944.09
2023-02-08T12:13:03.259Z,98950.16
2023-02-08T12:15:58.836Z,98941.59
2023-02-08T12:18:48.375Z,98958.28
2023-02-08T12:21:21.838Z,98954.34
2023-02-08T12:24:25.993Z,98931.66
2023-02-08T12:27:27.295Z,98936.63
2023-02-08T12:30:23.445Z,98946.72
2023-02-08T12:33:12.152Z,98948.34
2023-02-08T12:36:04.573Z,98940.88
2023-02-08T12:39:26.179Z,98957.91
2023-02-08T12:42:12.256Z,98949.13
2023-02-08T12:45:15.326Z,98962.47
2023-02-08T12:48:04.446Z,98944.84
2023-02-08T12:50:46.900Z,98959.16
2023-02-08T12:53:13.823Z,98965.38
2023-02-08T12:55:42.741Z,98968.75
2023-02-08T12:58:45.567Z,98980.25
2023-02-08T13:01:22.742Z,98952.41
2023-02-08T13:04:04.729Z,98977.94
2023-02-08T13:07:09.313Z,98981.06
2023-02-08T13:09:46.528Z,98979.41
2023-02-08T13:12:20.681Z,98992.28
2023-02-08T13:14:54.698Z,98974.00
2023-02-08T13:17:24.173Z,98988.88
2023-02-08T13:20:05.281Z,98996.44
2023-02-08T13:22:37.356Z,98985.56
2023-02-08T13:25:08.562Z,99008.59
2023-02-08T13:27:36.061Z,98990.00
2023-02-08T13:30:05.387Z,98993.31
2023-02-08T13:32:45.690Z,99000.03
2023-02-08T13:35:12.550Z,99006.09
2023-02-08T13:37:39.703Z,99004.69
2023-02-08T13:40:21.987Z,98999.09
2023-02-08T13:42:56.172Z,99005.84
2023-02-08T13:45:28.662Z,99007.19
2023-02-08T13:48:01.383Z,99011.28
2023-02-08T13:50:41.281Z,98989.59
2023-02-08T13:53:09.454Z,98997.41
2023-02-08T13:55:41.509Z,99003.22
2023-02-08T13:58:14.787Z,99000.56
2023-02-08T14:00:53.994Z,99005.34
2023-02-08T14:03:22.420Z,99004.81
2023-02-08T14:05:57.373Z,99016.47
2023-02-08T14:08:29.984Z,99012.53
2023-02-08T14:11:20.210Z,99010.22
2023-02-08T14:13:53.802Z,99010.75
2023-02-08T14:16:36.040Z,98991.72
2023-02-08T14:19:06.285Z,99000.38
2023-02-08T14:22:02.450Z,99013.25
2023-02-08T14:24:43.916Z,99015.09
2023-02-08T14:27:40.075Z,99022.97
2023-02-08T14:30:16.260Z,99018.63
2023-02-08T14:32:46.778Z,99017.00
2023-02-08T14:35:13.578Z,99020.56
2023-02-08T14:37:43.445Z,99015.47
2023-02-08T14:40:25.268Z,99007.81
2023-02-08T14:43:21.387Z,99028.81
2023-02-08T14:45:53.574Z,99008.38
2023-02-08T14:48:34.407Z,99019.28
2023-02-08T14:51:10.749Z,99030.38
2023-02-08T14:53:50.000Z,99019.63
2023-02-08T14:56:31.739Z,99031.34
2023-02-08T14:59:15.347Z,99018.19
2023-02-08T15:01:53.559Z,99032.00
2023-02-08T15:04:21.370Z,99024.66
2023-02-08T15:07:09.251Z,99029.41
2023-02-08T15:09:39.771Z,99034.97
2023-02-08T15:12:18.347Z,99043.34
2023-02-08T15:14:45.789Z,99036.97
2023-02-08T15:17:23.124Z,99033.34
2023-02-08T15:19:51.633Z,99035.44
2023-02-08T15:22:38.487Z,99039.72
2023-02-08T15:25:35.601Z,99037.81
2023-02-08T15:28:20.423Z,99029.13
2023-02-08T15:30:56.659Z,99031.34
2023-02-08T15:33:23.989Z,99026.19
2023-02-08T15:36:00.944Z,99021.72
2023-02-08T15:38:29.646Z,99026.91
2023-02-08T15:41:27.547Z,99034.41
2023-02-08T15:44:24.651Z,99020.28
2023-02-08T15:49:33.996Z,99012.97
2023-02-08T15:52:02.067Z,99032.06
2023-02-08T15:54:29.343Z,99027.09
2023-02-08T15:57:16.549Z,99027.00
2023-02-08T15:59:45.781Z,99026.66
2023-02-08T16:02:34.056Z,99037.09
2023-02-08T16:05:10.788Z,99038.19
2023-02-08T16:07:41.053Z,99024.59
2023-02-08T16:10:18.962Z,99026.44
2023-02-08T16:13:00.648Z,99021.38
2023-02-08T16:15:42.763Z,99040.19
2023-02-08T16:18:34.174Z,99046.19
2023-02-08T16:21:03.972Z,99033.81
2023-02-08T16:23:33.324Z,99035.84
2023-02-08T16:26:26.491Z,99030.91
2023-02-08T16:29:02.840Z,99039.31
2023-02-08T16:31:31.939Z,99027.00
2023-02-08T16:34:04.901Z,99047.47
2023-02-08T16:36:39.423Z,99047.19
2023-02-08T16:39:16.249Z,99049.88
2023-02-08T16:42:06.396Z,99052.06
2023-02-08T16:45:02.137Z,99036.47
2023-02-08T16:47:51.928Z,99047.19
2023-02-08T16:50:21.419Z,99055.84
2023-02-08T16:52:52.785Z,99051.09
2023-02-08T16:55:26.730Z,99058.50
2023-02-08T16:57:56.333Z,99047.78
2023-02-08T17:00:35.541Z,99066.78
2023-02-08T17:03:02.799Z,99068.53
2023-02-08T17:05:36.882Z,99081.53
2023-02-08T17:08:09.948Z,99076.19
2023-02-08T17:10:37.087Z,99077.91
2023-02-08T17:13:19.472Z,99088.47
2023-02-08T17:15:57.659Z,99087.94
2023-02-08T17:18:25.768Z,99064.88
2023-02-08T17:20:59.425Z,99103.50
2023-02-08T17:23:26.987Z,99098.03
2023-02-08T17:25:54.034Z,99092.88
2023-02-08T17:28:23.807Z,99095.47
2023-02-08T17:30:51.144Z,99084.97
2023-02-08T17:33:21.267Z,99082.84
2023-02-08T17:35:54.391Z,99096.25
2023-02-08T17:38:21.799Z,99094.75
2023-02-08T17:40:48.915Z,99107.63
2023-02-08T17:43:19.016Z,99100.22
2023-02-08T17:45:46.713Z,99109.38
2023-02-08T17:48:14.486Z,99103.50
2023-02-08T17:50:43.962Z,99110.47
2023-02-08T17:53:16.195Z,99080.53
2023-02-08T17:55:45.258Z,99092.13
2023-02-08T17:58:15.504Z,99113.22
2023-02-08T18:00:44.780Z,99120.16
2023-02-08T18:03:14.553Z,99100.50
2023-02-08T18:05:41.459Z,99107.66
2023-02-08T18:08:08.441Z,99110.91
2023-02-08T18:10:35.303Z,99120.06
2023-02-08T18:13:02.191Z,99117.34
2023-02-08T18:15:29.161Z,99124.84
2023-02-08T18:18:00.583Z,99127.94
2023-02-08T18:20:30.371Z,99134.09
2023-02-08T18:22:57.462Z,99125.69
2023-02-08T18:25:24.382Z,99136.97
2023-02-08T18:27:56.356Z,99118.13
2023-02-08T18:30:27.309Z,99136.00
2023-02-08T18:32:57.160Z,99133.53
2023-02-08T18:35:24.074Z,99149.66
2023-02-08T18:37:51.256Z,99137.91
2023-02-08T18:40:18.502Z,99158.66
2023-02-08T18:42:45.472Z,99146.72
2023-02-08T18:45:12.339Z,99159.38
2023-02-08T18:47:39.802Z,99144.00
2023-02-08T18:50:07.216Z,99150.41
2023-02-08T18:52:34.347Z,99149.66
2023-02-08T18:55:01.419Z,99158.88
2023-02-08T18:57:30.296Z,99160.25
2023-02-08T18:59:57.222Z,99161.13
2023-02-08T19:02:26.397Z,99159.00
2023-02-08T19:11:37.861Z,99151.28
2023-02-08T19:14:07.747Z,99155.69
2023-02-08T19:16:36.698Z,99162.41
2023-02-08T19:19:05.478Z,99162.63
2023-02-08T19:21:35.772Z,99158.56
2023-02-08T19:24:03.090Z,99146.34
2023-02-08T19:26:33.238Z,99150.91
2023-02-08T19:29:03.456Z,99136.41
2023-02-08T19:31:30.886Z,99159.50
2023-02-08T19:33:59.928Z,99161.06
2023-02-08T19:36:37.247Z,99153.19
2023-02-08T19:39:05.942Z,99149.72
2023-02-08T19:41:35.930Z,99147.22
2023-02-08T19:44:05.526Z,99150.47
2023-02-08T19:46:34.647Z,99136.59
2023-02-08T19:49:02.099Z,99147.44
2023-02-08T19:51:34.744Z,99148.59
2023-02-08T19:54:02.619Z,99137.81
2023-02-08T19:56:33.938Z,99138.69
2023-02-08T19:59:04.199Z,99150.75
2023-02-08T20:01:39.754Z,99142.28
2023-02-08T20:04:15.595Z,99131.16
2023-02-08T20:06:45.034Z,99150.47
2023-02-08T20:09:15.342Z,99166.13
2023-02-08T20:11:56.378Z,99163.00
2023-02-08T20:14:25.093Z,99150.53
2023-02-08T20:16:52.041Z,99166.75
2023-02-08T20:19:18.974Z,99139.22
2023-02-08T20:21:46.048Z,99145.75
2023-02-08T20:24:14.023Z,99148.00
2023-02-08T20:26:43.176Z,99150.69
2023-02-08T20:29:11.222Z,99159.63
2023-02-08T20:31:42.535Z,99157.97
2023-02-08T20:34:13.214Z,99165.56
2023-02-08T20:36:46.177Z,99163.97
2023-02-08T20:39:19.118Z,99159.63
2023-02-08T20:41:47.509Z,99162.47
2023-02-08T20:44:17.876Z,99167.25
2023-02-08T20:46:46.578Z,99165.13
2023-02-08T20:49:15.457Z,99152.44
2023-02-08T20:51:43.388Z,99151.75
2023-02-08T20:54:11.485Z,99165.22
2023-02-08T20:56:39.311Z,99132.25
2023-02-08T20:59:09.005Z,99143.69
2023-02-08T21:01:36.795Z,99148.13
2023-02-08T21:04:05.183Z,99162.09
2023-02-08T21:06:37.936Z,99161.59
2023-02-08T21:09:11.695Z,99133.91
2023-02-08T21:11:39.100Z,99156.47
2023-02-08T21:14:10.856Z,99151.38
2023-02-08T21:16:38.562Z,99154.97
2023-02-08T21:19:05.732Z,99164.44
2023-02-08T21:21:33.973Z,99146.69
2023-02-08T21:24:01.085Z,99168.75
2023-02-08T21:26:28.501Z,99158.25
2023-02-08T21:28:56.601Z,99160.97
2023-02-08T21:31:24.886Z,99164.53
2023-02-08T21:33:52.809Z,99163.53
2023-02-08T21:36:23.252Z,99154.06
2023-02-08T21:38:51.033Z,99155.78
2023-02-08T21:41:21.027Z,99168.22
2023-02-08T21:43:49.046Z,99167.31
2023-02-08T21:46:19.419Z,99148.91
2023-02-08T21:49:05.515Z,99169.47
2023-02-08T21:51:51.022Z,99167.25
2023-02-08T21:54:39.244Z,99165.97
2023-02-08T21:57:11.398Z,99166.66
2023-02-08T21:59:38.689Z,99164.88
2023-02-08T22:02:08.082Z,99172.59
2023-02-08T22:04:36.477Z,99180.06
2023-02-08T22:07:06.590Z,99187.00
2023-02-08T22:09:35.911Z,99171.94
2023-02-08T22:12:02.901Z,99175.75
2023-02-08T22:14:30.025Z,99175.13
2023-02-08T22:16:56.922Z,99184.34
2023-02-08T22:19:23.923Z,99173.03
2023-02-08T22:21:54.519Z,99179.56
2023-02-08T22:24:21.525Z,99196.25
2023-02-08T22:26:48.462Z,99182.47
2023-02-08T22:29:15.365Z,99184.59
2023-02-08T22:31:42.369Z,99184.78
2023-02-08T22:34:09.289Z,99191.66
2023-02-08T22:36:36.322Z,99188.16
2023-02-08T22:39:03.290Z,99191.06
2023-02-08T22:41:30.295Z,99187.03
2023-02-08T22:43:57.197Z,99180.22
2023-02-08T22:46:24.470Z,99200.69
2023-02-08T22:48:51.390Z,99195.88
2023-02-08T22:51:19.225Z,99192.22
2023-02-08T22:53:46.756Z,99167.66
2023-02-08T22:56:15.103Z,99168.91
2023-02-08T22:58:42.072Z,99168.03
2023-02-08T23:01:11.422Z,99180.19
2023-02-08T23:03:38.852Z,99166.69
2023-02-08T23:06:08.133Z,99181.56
2023-02-08T23:08:35.983Z,99162.78
2023-02-08T23:11:05.640Z,99179.97
2023-02-08T23:13:34.169Z,99167.28
2023-02-08T23:16:01.161Z,99184.03
2023-02-08T23:18:28.079Z,99171.94
2023-02-08T23:20:55.309Z,99171.97
2023-02-08T23:23:22.283Z,99176.56
2023-02-08T23:25:49.302Z,99175.00
2023-02-08T23:28:16.234Z,99183.03
2023-02-08T23:30:43.988Z,99188.75
2023-02-08T23:33:11.154Z,99192.25
2023-02-08T23:35:41.748Z,99180.88
2023-02-08T23:38:09.220Z,99182.75
2023-02-08T23:40:36.167Z,99184.69
2023-02-08T23:43:03.127Z,99169.19
2023-02-08T23:45:30.012Z,99163.13
2023-02-08T23:47:56.903Z,99178.28
2023-02-08T23:50:23.785Z,99177.81
2023-02-08T23:52:50.657Z,99169.88
2023-02-08T23:55:17.747Z,99177.91
2023-02-08T23:57:44.627Z,99188.38
